Kasagimaru — JJ3905 — position and weather

sailwx.info

Track history (hours):
 
Tides and Currents Weather Stations Pressure Air Temp Water Temp Dewpoint Dewpoint Depression Visibility Wind Speed Wind Dir Waves Ship Positions

Kasagimaru

Last reported at 2015-Mar-03 02:21 UTC. Time now 2015-Mar-03 04:47 UTC.
Position N 34°25' E 135°05'.

Length 42 m; draft 3.5 m.

Type: Tug. MMSI: 431300268.

Date/timePositionNaut miles runAvg speedWind from/ knotsBaromVisibWave heightAir tempDewpointWater temp
2015-Mar-03 02:21N 34°25' E 135°05'1114.0
2015-Mar-03 01:33N 34°32' E 135°15'7 7.2
2015-Mar-03 00:33N 34°33' E 135°24'1 1.5
2015-Mar-02 23:33N 34°33' E 135°26'1 0.1
2015-Mar-02 17:26N 34°33' E 135°27'0 0.0
2015-Mar-02 16:29N 34°33' E 135°27'0 0.0
2015-Mar-02 15:31N 34°33' E 135°27'0 0.0
2015-Mar-02 14:32N 34°33' E 135°27'0 0.0
2015-Mar-02 13:30N 34°33' E 135°27'0 0.0
2015-Mar-02 12:32N 34°33' E 135°27'0 0.0
2015-Mar-02 11:28N 34°33' E 135°27'0 0.0
2015-Mar-02 10:11N 34°33' E 135°27'0 0.0
2015-Mar-02 09:31N 34°33' E 135°27'0 0.0
2015-Mar-02 08:22N 34°33' E 135°27'0 0.0
2015-Mar-02 07:33N 34°33' E 135°27'0 0.0
2015-Mar-02 06:17N 34°33' E 135°27'0 0.0
2015-Mar-02 05:33N 34°33' E 135°27'0 0.0
2015-Mar-02 04:26N 34°33' E 135°27'0 0.0
2015-Mar-02 03:30N 34°33' E 135°27'0 0.0
2015-Mar-02 02:31N 34°33' E 135°27'0 0.1
2015-Mar-02 01:33N 34°33' E 135°27'2 1.9
2015-Mar-02 00:33N 34°33' E 135°24'3 2.8
2015-Mar-01 23:31N 34°33' E 135°21'1 1.0
2015-Mar-01 22:33N 34°32' E 135°21'5 2.2
2015-Mar-01 20:19N 34°33' E 135°27'0 0.0
2015-Mar-01 18:29N 34°33' E 135°27'0 0.0
2015-Mar-01 17:33N 34°33' E 135°27'0 0.0
2015-Mar-01 16:31N 34°33' E 135°27'0 0.0
2015-Mar-01 15:29N 34°33' E 135°27'0 0.0
2015-Mar-01 14:28N 34°33' E 135°27'0 0.0
2015-Mar-01 13:32N 34°33' E 135°27'0 0.0
2015-Mar-01 12:03N 34°33' E 135°27'0 0.0
2015-Mar-01 09:33N 34°33' E 135°27'0 0.0
2015-Mar-01 04:31N 34°33' E 135°27'0 0.0
2015-Mar-01 03:28N 34°33' E 135°27'0 0.0
2015-Mar-01 02:33N 34°33' E 135°27'0 0.0
2015-Mar-01 01:30N 34°33' E 135°27'1 1.1
2015-Mar-01 00:33N 34°33' E 135°25'3 3.3
2015-Feb-28 23:33N 34°34' E 135°22'4 4.1
2015-Feb-28 22:33N 34°33' E 135°27'0 0.0
2015-Feb-28 21:33N 34°33' E 135°27'0 0.0
2015-Feb-28 20:33N 34°33' E 135°27'0 0.0
2015-Feb-28 19:33N 34°33' E 135°27'0 0.0
2015-Feb-28 18:09N 34°33' E 135°27'0 0.0
2015-Feb-28 17:24N 34°33' E 135°27'0 0.0
2015-Feb-28 16:33N 34°33' E 135°27'0 0.0
2015-Feb-28 15:33N 34°33' E 135°27'0 0.0
2015-Feb-28 14:30N 34°33' E 135°27'0 0.0
2015-Feb-28 13:33N 34°33' E 135°27'0 0.0
2015-Feb-28 12:32N 34°33' E 135°27'0 0.0
2015-Feb-28 11:33N 34°33' E 135°27'0 0.0
2015-Feb-28 10:33N 34°33' E 135°27'0 0.0
2015-Feb-28 09:33N 34°33' E 135°27'0 0.0
2015-Feb-28 08:33N 34°33' E 135°27'0 0.0
2015-Feb-28 07:33N 34°33' E 135°27'4 3.6
2015-Feb-28 06:33N 34°31' E 135°23'2 1.0
2015-Feb-28 04:33N 34°33' E 135°24'1 0.9
2015-Feb-28 03:32N 34°33' E 135°25'3 3.0
2015-Feb-28 02:32N 34°33' E 135°21'3 2.6
2015-Feb-28 01:15N 34°33' E 135°25'0 0.1
2015-Feb-28 00:32N 34°33' E 135°25'4 3.6
2015-Feb-27 23:30N 34°33' E 135°21'5 4.9
2015-Feb-27 22:33N 34°33' E 135°26'0 0.2
2015-Feb-27 20:25N 34°33' E 135°27'0 0.0
2015-Feb-27 19:28N 34°33' E 135°27'0 0.0
2015-Feb-27 18:24N 34°33' E 135°27'0 0.0
2015-Feb-27 15:23N 34°33' E 135°27'0 0.0
2015-Feb-27 14:16N 34°33' E 135°27'0 0.0
2015-Feb-27 12:31N 34°33' E 135°27'0 0.0
2015-Feb-27 11:12N 34°33' E 135°27'1 2.0
2015-Feb-27 10:31N 34°33' E 135°25'3 3.0
2015-Feb-27 09:33N 34°31' E 135°23'4 2.7
2015-Feb-27 08:14N 34°33' E 135°27'0 0.0
2015-Feb-27 07:14N 34°33' E 135°27'0 0.0
2015-Feb-27 06:13N 34°33' E 135°27'0 0.0
2015-Feb-27 05:28N 34°33' E 135°27'0 0.0
2015-Feb-27 04:28N 34°33' E 135°27'0 0.0
2015-Feb-27 03:33N 34°33' E 135°27'0 0.0
2015-Feb-27 02:32N 34°33' E 135°27'0 0.0
2015-Feb-27 01:08N 34°33' E 135°27'0 0.0
2015-Feb-27 00:27N 34°33' E 135°27'0 0.0
2015-Feb-26 23:06N 34°33' E 135°27'0 0.0
2015-Feb-26 22:26N 34°33' E 135°27'0 0.0
2015-Feb-26 21:33N 34°33' E 135°27'0 0.0
2015-Feb-26 20:24N 34°33' E 135°27'0 0.0
2015-Feb-26 19:33N 34°33' E 135°27'0 0.0
2015-Feb-26 18:09N 34°33' E 135°27'0 0.0
2015-Feb-26 17:22N 34°33' E 135°27'0 0.0
2015-Feb-26 16:33N 34°33' E 135°27'0 0.0
2015-Feb-26 15:13N 34°33' E 135°27'0 0.0
2015-Feb-26 14:08N 34°33' E 135°27'0 0.0
2015-Feb-26 13:31N 34°33' E 135°27'0 0.0
2015-Feb-26 12:31N 34°33' E 135°27'0 0.0
2015-Feb-26 11:30N 34°33' E 135°27'4 2.1
2015-Feb-26 09:33N 34°36' E 135°23'3 2.8
2015-Feb-26 08:33N 34°39' E 135°24'2 1.2
2015-Feb-26 07:19N 34°39' E 135°26'0 0.5
2015-Feb-26 06:33N 34°39' E 135°26'2 1.9
2015-Feb-26 05:33N 34°38' E 135°23'6 5.5
2015-Feb-26 04:33N 34°33' E 135°27'0 0.0
2015-Feb-26 02:14N 34°33' E 135°27'0 0.0
2015-Feb-26 01:33N 34°33' E 135°27'0 0.0
2015-Feb-26 00:33N 34°33' E 135°27'0 0.0
2015-Feb-25 23:32N 34°33' E 135°27'0 0.0
2015-Feb-25 22:33N 34°33' E 135°27'0 0.0
2015-Feb-25 21:21N 34°33' E 135°27'0 0.0
2015-Feb-25 20:33N 34°33' E 135°27'0 0.0
2015-Feb-25 17:07N 34°33' E 135°27'0 0.0
2015-Feb-25 16:09N 34°33' E 135°27'0 0.0
2015-Feb-25 15:17N 34°33' E 135°27'0 0.0
2015-Feb-25 14:33N 34°33' E 135°27'0 0.0
2015-Feb-25 13:33N 34°33' E 135°27'0 0.0
2015-Feb-25 12:30N 34°33' E 135°27'0 0.0
2015-Feb-25 11:33N 34°33' E 135°27'0 0.0
2015-Feb-25 10:33N 34°33' E 135°27'0 0.0
2015-Feb-25 09:33N 34°33' E 135°27'5 4.7
2015-Feb-25 08:30N 34°34' E 135°21'1212.6
2015-Feb-25 07:33N 34°36' E 135°06'21 0.6
2015-Feb-23 22:24N 34°41' E 134°41'18 9.5
2015-Feb-23 20:33N 34°37' E 135°02'6 6.4
2015-Feb-23 19:33N 34°33' E 135°08'13 9.4
2015-Feb-23 18:07N 34°20' E 135°01'711.8
2015-Feb-23 17:33N 34°14' E 134°59'7 7.0
2015-Feb-23 16:33N 34°13' E 135°08'1 1.1
2015-Feb-23 15:33N 34°13' E 135°09'0 0.0
2015-Feb-23 14:33N 34°13' E 135°09'0 0.0
2015-Feb-23 13:33N 34°13' E 135°09'0 0.0
2015-Feb-23 12:33N 34°13' E 135°09'0 0.0
2015-Feb-23 11:33N 34°13' E 135°09'0 0.0
2015-Feb-23 10:33N 34°13' E 135°09'0 0.0
2015-Feb-23 09:34N 34°13' E 135°09'0 0.0
2015-Feb-23 08:33N 34°13' E 135°09'0 0.0
2015-Feb-23 07:33N 34°13' E 135°09'0 0.0
2015-Feb-23 06:33N 34°13' E 135°09'0 0.0
2015-Feb-23 05:33N 34°13' E 135°09'16 8.2
2015-Feb-23 03:33N 34°29' E 135°05'10 0.4
2015-Feb-22 01:09N 34°37' E 134°56'712.2
2015-Feb-22 00:33N 34°36' E 135°04'6 6.3
2015-Feb-21 23:33N 34°30' E 135°06'1312.2
2015-Feb-21 22:29N 34°18' E 134°60'7 6.9
2015-Feb-21 21:28N 34°11' E 135°00'8 7.8
2015-Feb-21 20:23N 34°19' E 135°04'8 9.8
2015-Feb-21 19:33N 34°23' E 135°12'10 9.9
2015-Feb-21 18:33N 34°30' E 135°21'5 5.4
2015-Feb-21 17:33N 34°33' E 135°27'0 0.0
2015-Feb-21 16:33N 34°33' E 135°27'0 0.0
2015-Feb-21 15:33N 34°33' E 135°27'0 0.0
2015-Feb-21 14:33N 34°33' E 135°27'0 0.0
2015-Feb-21 13:33N 34°33' E 135°27'0 0.0
2015-Feb-21 10:15N 34°33' E 135°27'0 0.0
2015-Feb-21 09:31N 34°33' E 135°27'0 0.0
2015-Feb-21 08:33N 34°33' E 135°27'0 0.0
2015-Feb-21 07:24N 34°33' E 135°27'0 0.0
2015-Feb-21 06:32N 34°33' E 135°27'0 0.0
2015-Feb-21 05:29N 34°33' E 135°27'0 0.0
2015-Feb-21 04:26N 34°33' E 135°27'1 1.6
2015-Feb-21 03:32N 34°33' E 135°25'1 1.0
2015-Feb-21 02:28N 34°33' E 135°24'  
Track history (hours):
 
Tides and Currents Weather Stations Pressure Air Temp Water Temp Dewpoint Dewpoint Depression Visibility Wind Speed Wind Dir Waves Ship Positions

Kasagimaru

Last reported at 2015-Mar-03 02:21 UTC. Time now 2015-Mar-03 04:47 UTC.
Position N 34°25' E 135°05'.

Length 42 m; draft 3.5 m.

Type: Tug. MMSI: 431300268.

Date/timePositionNaut miles runAvg speedWind from/ knotsBaromVisibWave heightAir tempDewpointWater temp
2015-Mar-03 02:21N 34°25' E 135°05'1114.0
2015-Mar-03 01:33N 34°32' E 135°15'7 7.2
2015-Mar-03 00:33N 34°33' E 135°24'1 1.5
2015-Mar-02 23:33N 34°33' E 135°26'1 0.1
2015-Mar-02 17:26N 34°33' E 135°27'0 0.0
2015-Mar-02 16:29N 34°33' E 135°27'0 0.0
2015-Mar-02 15:31N 34°33' E 135°27'0 0.0
2015-Mar-02 14:32N 34°33' E 135°27'0 0.0
2015-Mar-02 13:30N 34°33' E 135°27'0 0.0
2015-Mar-02 12:32N 34°33' E 135°27'0 0.0
2015-Mar-02 11:28N 34°33' E 135°27'0 0.0
2015-Mar-02 10:11N 34°33' E 135°27'0 0.0
2015-Mar-02 09:31N 34°33' E 135°27'0 0.0
2015-Mar-02 08:22N 34°33' E 135°27'0 0.0
2015-Mar-02 07:33N 34°33' E 135°27'0 0.0
2015-Mar-02 06:17N 34°33' E 135°27'0 0.0
2015-Mar-02 05:33N 34°33' E 135°27'0 0.0
2015-Mar-02 04:26N 34°33' E 135°27'0 0.0
2015-Mar-02 03:30N 34°33' E 135°27'0 0.0
2015-Mar-02 02:31N 34°33' E 135°27'0 0.1
2015-Mar-02 01:33N 34°33' E 135°27'2 1.9
2015-Mar-02 00:33N 34°33' E 135°24'3 2.8
2015-Mar-01 23:31N 34°33' E 135°21'1 1.0
2015-Mar-01 22:33N 34°32' E 135°21'5 2.2
2015-Mar-01 20:19N 34°33' E 135°27'0 0.0
2015-Mar-01 18:29N 34°33' E 135°27'0 0.0
2015-Mar-01 17:33N 34°33' E 135°27'0 0.0
2015-Mar-01 16:31N 34°33' E 135°27'0 0.0
2015-Mar-01 15:29N 34°33' E 135°27'0 0.0
2015-Mar-01 14:28N 34°33' E 135°27'0 0.0
2015-Mar-01 13:32N 34°33' E 135°27'0 0.0
2015-Mar-01 12:03N 34°33' E 135°27'0 0.0
2015-Mar-01 09:33N 34°33' E 135°27'0 0.0
2015-Mar-01 04:31N 34°33' E 135°27'0 0.0
2015-Mar-01 03:28N 34°33' E 135°27'0 0.0
2015-Mar-01 02:33N 34°33' E 135°27'0 0.0
2015-Mar-01 01:30N 34°33' E 135°27'1 1.1
2015-Mar-01 00:33N 34°33' E 135°25'3 3.3
2015-Feb-28 23:33N 34°34' E 135°22'4 4.1
2015-Feb-28 22:33N 34°33' E 135°27'0 0.0
2015-Feb-28 21:33N 34°33' E 135°27'0 0.0
2015-Feb-28 20:33N 34°33' E 135°27'0 0.0
2015-Feb-28 19:33N 34°33' E 135°27'0 0.0
2015-Feb-28 18:09N 34°33' E 135°27'0 0.0
2015-Feb-28 17:24N 34°33' E 135°27'0 0.0
2015-Feb-28 16:33N 34°33' E 135°27'0 0.0
2015-Feb-28 15:33N 34°33' E 135°27'0 0.0
2015-Feb-28 14:30N 34°33' E 135°27'0 0.0
2015-Feb-28 13:33N 34°33' E 135°27'0 0.0
2015-Feb-28 12:32N 34°33' E 135°27'0 0.0
2015-Feb-28 11:33N 34°33' E 135°27'0 0.0
2015-Feb-28 10:33N 34°33' E 135°27'0 0.0
2015-Feb-28 09:33N 34°33' E 135°27'0 0.0
2015-Feb-28 08:33N 34°33' E 135°27'0 0.0
2015-Feb-28 07:33N 34°33' E 135°27'4 3.6
2015-Feb-28 06:33N 34°31' E 135°23'2 1.0
2015-Feb-28 04:33N 34°33' E 135°24'1 0.9
2015-Feb-28 03:32N 34°33' E 135°25'3 3.0
2015-Feb-28 02:32N 34°33' E 135°21'3 2.6
2015-Feb-28 01:15N 34°33' E 135°25'0 0.1
2015-Feb-28 00:32N 34°33' E 135°25'4 3.6
2015-Feb-27 23:30N 34°33' E 135°21'5 4.9
2015-Feb-27 22:33N 34°33' E 135°26'0 0.2
2015-Feb-27 20:25N 34°33' E 135°27'0 0.0
2015-Feb-27 19:28N 34°33' E 135°27'0 0.0
2015-Feb-27 18:24N 34°33' E 135°27'0 0.0
2015-Feb-27 15:23N 34°33' E 135°27'0 0.0
2015-Feb-27 14:16N 34°33' E 135°27'0 0.0
2015-Feb-27 12:31N 34°33' E 135°27'0 0.0
2015-Feb-27 11:12N 34°33' E 135°27'1 2.0
2015-Feb-27 10:31N 34°33' E 135°25'3 3.0
2015-Feb-27 09:33N 34°31' E 135°23'4 2.7
2015-Feb-27 08:14N 34°33' E 135°27'0 0.0
2015-Feb-27 07:14N 34°33' E 135°27'0 0.0
2015-Feb-27 06:13N 34°33' E 135°27'0 0.0
2015-Feb-27 05:28N 34°33' E 135°27'0 0.0
2015-Feb-27 04:28N 34°33' E 135°27'0 0.0
2015-Feb-27 03:33N 34°33' E 135°27'0 0.0
2015-Feb-27 02:32N 34°33' E 135°27'0 0.0
2015-Feb-27 01:08N 34°33' E 135°27'0 0.0
2015-Feb-27 00:27N 34°33' E 135°27'0 0.0
2015-Feb-26 23:06N 34°33' E 135°27'0 0.0
2015-Feb-26 22:26N 34°33' E 135°27'0 0.0
2015-Feb-26 21:33N 34°33' E 135°27'0 0.0
2015-Feb-26 20:24N 34°33' E 135°27'0 0.0
2015-Feb-26 19:33N 34°33' E 135°27'0 0.0
2015-Feb-26 18:09N 34°33' E 135°27'0 0.0
2015-Feb-26 17:22N 34°33' E 135°27'0 0.0
2015-Feb-26 16:33N 34°33' E 135°27'0 0.0
2015-Feb-26 15:13N 34°33' E 135°27'0 0.0
2015-Feb-26 14:08N 34°33' E 135°27'0 0.0
2015-Feb-26 13:31N 34°33' E 135°27'0 0.0
2015-Feb-26 12:31N 34°33' E 135°27'0 0.0
2015-Feb-26 11:30N 34°33' E 135°27'4 2.1
2015-Feb-26 09:33N 34°36' E 135°23'3 2.8
2015-Feb-26 08:33N 34°39' E 135°24'2 1.2
2015-Feb-26 07:19N 34°39' E 135°26'0 0.5
2015-Feb-26 06:33N 34°39' E 135°26'2 1.9
2015-Feb-26 05:33N 34°38' E 135°23'6 5.5
2015-Feb-26 04:33N 34°33' E 135°27'0 0.0
2015-Feb-26 02:14N 34°33' E 135°27'0 0.0
2015-Feb-26 01:33N 34°33' E 135°27'0 0.0
2015-Feb-26 00:33N 34°33' E 135°27'0 0.0
2015-Feb-25 23:32N 34°33' E 135°27'0 0.0
2015-Feb-25 22:33N 34°33' E 135°27'0 0.0
2015-Feb-25 21:21N 34°33' E 135°27'0 0.0
2015-Feb-25 20:33N 34°33' E 135°27'0 0.0
2015-Feb-25 17:07N 34°33' E 135°27'0 0.0
2015-Feb-25 16:09N 34°33' E 135°27'0 0.0
2015-Feb-25 15:17N 34°33' E 135°27'0 0.0
2015-Feb-25 14:33N 34°33' E 135°27'0 0.0
2015-Feb-25 13:33N 34°33' E 135°27'0 0.0
2015-Feb-25 12:30N 34°33' E 135°27'0 0.0
2015-Feb-25 11:33N 34°33' E 135°27'0 0.0
2015-Feb-25 10:33N 34°33' E 135°27'0 0.0
2015-Feb-25 09:33N 34°33' E 135°27'5 4.7
2015-Feb-25 08:30N 34°34' E 135°21'1212.6
2015-Feb-25 07:33N 34°36' E 135°06'21 0.6
2015-Feb-23 22:24N 34°41' E 134°41'18 9.5
2015-Feb-23 20:33N 34°37' E 135°02'6 6.4
2015-Feb-23 19:33N 34°33' E 135°08'13 9.4
2015-Feb-23 18:07N 34°20' E 135°01'711.8
2015-Feb-23 17:33N 34°14' E 134°59'7 7.0
2015-Feb-23 16:33N 34°13' E 135°08'1 1.1
2015-Feb-23 15:33N 34°13' E 135°09'0 0.0
2015-Feb-23 14:33N 34°13' E 135°09'0 0.0
2015-Feb-23 13:33N 34°13' E 135°09'0 0.0
2015-Feb-23 12:33N 34°13' E 135°09'0 0.0
2015-Feb-23 11:33N 34°13' E 135°09'0 0.0
2015-Feb-23 10:33N 34°13' E 135°09'0 0.0
2015-Feb-23 09:34N 34°13' E 135°09'0 0.0
2015-Feb-23 08:33N 34°13' E 135°09'0 0.0
2015-Feb-23 07:33N 34°13' E 135°09'0 0.0
2015-Feb-23 06:33N 34°13' E 135°09'0 0.0
2015-Feb-23 05:33N 34°13' E 135°09'16 8.2
2015-Feb-23 03:33N 34°29' E 135°05'10 0.4
2015-Feb-22 01:09N 34°37' E 134°56'712.2
2015-Feb-22 00:33N 34°36' E 135°04'6 6.3
2015-Feb-21 23:33N 34°30' E 135°06'1312.2
2015-Feb-21 22:29N 34°18' E 134°60'7 6.9
2015-Feb-21 21:28N 34°11' E 135°00'8 7.8
2015-Feb-21 20:23N 34°19' E 135°04'8 9.8
2015-Feb-21 19:33N 34°23' E 135°12'10 9.9
2015-Feb-21 18:33N 34°30' E 135°21'5 5.4
2015-Feb-21 17:33N 34°33' E 135°27'0 0.0
2015-Feb-21 16:33N 34°33' E 135°27'0 0.0
2015-Feb-21 15:33N 34°33' E 135°27'0 0.0
2015-Feb-21 14:33N 34°33' E 135°27'0 0.0
2015-Feb-21 13:33N 34°33' E 135°27'0 0.0
2015-Feb-21 10:15N 34°33' E 135°27'0 0.0
2015-Feb-21 09:31N 34°33' E 135°27'0 0.0
2015-Feb-21 08:33N 34°33' E 135°27'0 0.0
2015-Feb-21 07:24N 34°33' E 135°27'0 0.0
2015-Feb-21 06:32N 34°33' E 135°27'0 0.0
2015-Feb-21 05:29N 34°33' E 135°27'0 0.0
2015-Feb-21 04:26N 34°33' E 135°27'1 1.6
2015-Feb-21 03:32N 34°33' E 135°25'1 1.0
2015-Feb-21 02:28N 34°33' E 135°24'  

Dump ship's entire track history